sensor_id;sensor_type;location;lat;lon;timestamp;P1;durP1;ratioP1;P2;durP2;ratioP2
6432;SDS011;3249;42.690;23.260;2022-11-04T00:01:18;25.37;;;15.87;;
6432;SDS011;3249;42.690;23.260;2022-11-04T00:03:44;20.60;;;14.37;;
6432;SDS011;3249;42.690;23.260;2022-11-04T00:06:09;22.50;;;14.40;;
6432;SDS011;3249;42.690;23.260;2022-11-04T00:08:35;24.40;;;15.23;;
6432;SDS011;3249;42.690;23.260;2022-11-04T00:11:00;24.63;;;14.37;;
6432;SDS011;3249;42.690;23.260;2022-11-04T00:13:45;27.00;;;15.87;;
6432;SDS011;3249;42.690;23.260;2022-11-04T00:16:11;20.97;;;15.23;;
6432;SDS011;3249;42.690;23.260;2022-11-04T00:18:56;27.33;;;14.97;;
6432;SDS011;3249;42.690;23.260;2022-11-04T00:21:21;22.57;;;14.47;;
6432;SDS011;3249;42.690;23.260;2022-11-04T00:24:07;21.20;;;13.83;;
6432;SDS011;3249;42.690;23.260;2022-11-04T00:26:53;25.40;;;15.67;;
6432;SDS011;3249;42.690;23.260;2022-11-04T00:29:36;24.33;;;13.83;;
6432;SDS011;3249;42.690;23.260;2022-11-04T00:32:02;25.70;;;15.63;;
6432;SDS011;3249;42.690;23.260;2022-11-04T00:34:46;20.53;;;14.83;;
6432;SDS011;3249;42.690;23.260;2022-11-04T00:37:11;20.00;;;13.87;;
6432;SDS011;3249;42.690;23.260;2022-11-04T00:39:36;20.40;;;15.10;;
6432;SDS011;3249;42.690;23.260;2022-11-04T00:42:02;22.87;;;15.50;;
6432;SDS011;3249;42.690;23.260;2022-11-04T00:44:27;24.17;;;14.57;;
6432;SDS011;3249;42.690;23.260;2022-11-04T00:46:53;25.17;;;15.17;;
6432;SDS011;3249;42.690;23.260;2022-11-04T00:49:18;20.30;;;14.57;;
6432;SDS011;3249;42.690;23.260;2022-11-04T00:51:43;22.47;;;14.30;;
6432;SDS011;3249;42.690;23.260;2022-11-04T00:54:09;24.60;;;14.27;;
6432;SDS011;3249;42.690;23.260;2022-11-04T00:56:38;25.70;;;15.17;;
6432;SDS011;3249;42.690;23.260;2022-11-04T00:59:04;25.10;;;15.73;;
6432;SDS011;3249;42.690;23.260;2022-11-04T01:01:30;24.07;;;14.50;;
6432;SDS011;3249;42.690;23.260;2022-11-04T01:03:56;21.73;;;14.10;;
6432;SDS011;3249;42.690;23.260;2022-11-04T01:06:22;16.80;;;13.60;;
6432;SDS011;3249;42.690;23.260;2022-11-04T01:08:53;22.10;;;14.83;;
6432;SDS011;3249;42.690;23.260;2022-11-04T01:11:24;22.53;;;15.27;;
6432;SDS011;3249;42.690;23.260;2022-11-04T01:13:52;22.70;;;15.57;;
6432;SDS011;3249;42.690;23.260;2022-11-04T01:16:18;25.03;;;14.60;;
6432;SDS011;3249;42.690;23.260;2022-11-04T01:18:43;25.50;;;14.63;;
6432;SDS011;3249;42.690;23.260;2022-11-04T01:21:10;25.13;;;15.50;;
6432;SDS011;3249;42.690;23.260;2022-11-04T01:23:38;22.23;;;15.40;;
6432;SDS011;3249;42.690;23.260;2022-11-04T01:26:05;24.63;;;15.57;;
6432;SDS011;3249;42.690;23.260;2022-11-04T01:28:32;22.90;;;16.37;;
6432;SDS011;3249;42.690;23.260;2022-11-04T01:30:58;20.67;;;14.90;;
6432;SDS011;3249;42.690;23.260;2022-11-04T01:33:23;22.23;;;15.23;;
6432;SDS011;3249;42.690;23.260;2022-11-04T01:35:49;25.80;;;16.20;;
6432;SDS011;3249;42.690;23.260;2022-11-04T01:38:14;24.47;;;14.97;;
6432;SDS011;3249;42.690;23.260;2022-11-04T01:40:40;24.83;;;15.40;;
6432;SDS011;3249;42.690;23.260;2022-11-04T01:43:13;26.30;;;14.70;;
6432;SDS011;3249;42.690;23.260;2022-11-04T01:45:42;24.60;;;15.77;;
6432;SDS011;3249;42.690;23.260;2022-11-04T01:48:18;22.33;;;13.90;;
6432;SDS011;3249;42.690;23.260;2022-11-04T01:50:46;21.03;;;14.83;;
6432;SDS011;3249;42.690;23.260;2022-11-04T01:53:15;18.70;;;15.60;;
6432;SDS011;3249;42.690;23.260;2022-11-04T01:55:46;21.13;;;15.03;;
6432;SDS011;3249;42.690;23.260;2022-11-04T01:58:17;22.20;;;14.97;;
6432;SDS011;3249;42.690;23.260;2022-11-04T02:00:46;21.93;;;15.53;;
6432;SDS011;3249;42.690;23.260;2022-11-04T02:03:24;20.83;;;14.93;;
6432;SDS011;3249;42.690;23.260;2022-11-04T02:05:54;26.17;;;15.50;;
6432;SDS011;3249;42.690;23.260;2022-11-04T02:08:20;21.17;;;15.47;;
6432;SDS011;3249;42.690;23.260;2022-11-04T02:10:51;23.77;;;15.23;;
6432;SDS011;3249;42.690;23.260;2022-11-04T02:13:29;21.40;;;14.50;;
6432;SDS011;3249;42.690;23.260;2022-11-04T02:37:36;25.17;;;15.63;;
6432;SDS011;3249;42.690;23.260;2022-11-04T02:42:57;30.37;;;18.13;;
6432;SDS011;3249;42.690;23.260;2022-11-04T02:45:37;29.00;;;17.10;;
6432;SDS011;3249;42.690;23.260;2022-11-04T02:48:06;32.03;;;17.83;;
6432;SDS011;3249;42.690;23.260;2022-11-04T02:56:09;29.57;;;16.77;;
6432;SDS011;3249;42.690;23.260;2022-11-04T02:58:38;28.47;;;16.43;;
6432;SDS011;3249;42.690;23.260;2022-11-04T03:01:08;25.70;;;16.90;;
6432;SDS011;3249;42.690;23.260;2022-11-04T03:03:39;26.93;;;17.03;;
6432;SDS011;3249;42.690;23.260;2022-11-04T03:06:21;24.57;;;16.83;;
6432;SDS011;3249;42.690;23.260;2022-11-04T03:08:50;25.27;;;16.50;;
6432;SDS011;3249;42.690;23.260;2022-11-04T03:11:22;25.43;;;17.37;;
6432;SDS011;3249;42.690;23.260;2022-11-04T03:13:53;31.77;;;17.57;;
6432;SDS011;3249;42.690;23.260;2022-11-04T03:21:46;26.73;;;18.13;;
6432;SDS011;3249;42.690;23.260;2022-11-04T03:24:25;29.03;;;18.37;;
6432;SDS011;3249;42.690;23.260;2022-11-04T03:26:59;30.17;;;18.23;;
6432;SDS011;3249;42.690;23.260;2022-11-04T03:29:30;31.90;;;19.00;;
6432;SDS011;3249;42.690;23.260;2022-11-04T03:32:01;26.63;;;17.53;;
6432;SDS011;3249;42.690;23.260;2022-11-04T03:34:33;30.77;;;18.27;;
6432;SDS011;3249;42.690;23.260;2022-11-04T03:36:58;27.53;;;16.80;;
6432;SDS011;3249;42.690;23.260;2022-11-04T03:39:24;22.90;;;16.87;;
6432;SDS011;3249;42.690;23.260;2022-11-04T03:41:54;31.80;;;18.70;;
6432;SDS011;3249;42.690;23.260;2022-11-04T03:44:22;30.33;;;17.50;;
6432;SDS011;3249;42.690;23.260;2022-11-04T03:46:50;22.00;;;16.50;;
6432;SDS011;3249;42.690;23.260;2022-11-04T03:49:17;30.43;;;18.57;;
6432;SDS011;3249;42.690;23.260;2022-11-04T03:51:43;27.73;;;17.80;;
6432;SDS011;3249;42.690;23.260;2022-11-04T03:54:08;28.07;;;17.53;;
6432;SDS011;3249;42.690;23.260;2022-11-04T04:02:38;24.63;;;17.53;;
6432;SDS011;3249;42.690;23.260;2022-11-04T04:16:03;35.30;;;19.47;;
6432;SDS011;3249;42.690;23.260;2022-11-04T04:19:15;32.27;;;21.63;;
6432;SDS011;3249;42.690;23.260;2022-11-04T04:21:27;30.60;;;22.10;;
6432;SDS011;3249;42.690;23.260;2022-11-04T04:23:57;33.77;;;21.63;;
6432;SDS011;3249;42.690;23.260;2022-11-04T04:26:43;28.00;;;18.97;;
6432;SDS011;3249;42.690;23.260;2022-11-04T04:29:31;31.40;;;19.17;;
6432;SDS011;3249;42.690;23.260;2022-11-04T04:31:57;30.77;;;19.83;;
6432;SDS011;3249;42.690;23.260;2022-11-04T04:34:25;24.97;;;18.47;;
6432;SDS011;3249;42.690;23.260;2022-11-04T04:37:08;29.93;;;20.80;;
6432;SDS011;3249;42.690;23.260;2022-11-04T04:39:49;36.37;;;22.03;;
6432;SDS011;3249;42.690;23.260;2022-11-04T04:42:35;38.03;;;22.90;;
6432;SDS011;3249;42.690;23.260;2022-11-04T04:47:58;34.97;;;20.73;;
6432;SDS011;3249;42.690;23.260;2022-11-04T04:50:27;27.97;;;19.30;;
6432;SDS011;3249;42.690;23.260;2022-11-04T04:52:59;40.73;;;21.40;;
6432;SDS011;3249;42.690;23.260;2022-11-04T04:55:28;35.67;;;23.83;;
6432;SDS011;3249;42.690;23.260;2022-11-04T04:57:55;35.03;;;23.70;;
6432;SDS011;3249;42.690;23.260;2022-11-04T05:00:21;32.30;;;22.73;;
6432;SDS011;3249;42.690;23.260;2022-11-04T05:02:47;37.27;;;22.17;;
6432;SDS011;3249;42.690;23.260;2022-11-04T05:05:13;34.27;;;22.37;;
6432;SDS011;3249;42.690;23.260;2022-11-04T05:07:39;32.80;;;22.53;;
6432;SDS011;3249;42.690;23.260;2022-11-04T05:10:06;35.90;;;20.50;;
6432;SDS011;3249;42.690;23.260;2022-11-04T05:12:36;35.10;;;21.27;;
6432;SDS011;3249;42.690;23.260;2022-11-04T05:15:21;35.50;;;21.33;;
6432;SDS011;3249;42.690;23.260;2022-11-04T05:17:47;36.63;;;20.60;;
6432;SDS011;3249;42.690;23.260;2022-11-04T05:20:17;36.40;;;22.63;;
6432;SDS011;3249;42.690;23.260;2022-11-04T05:22:43;34.03;;;21.80;;
6432;SDS011;3249;42.690;23.260;2022-11-04T05:25:08;34.63;;;24.00;;
6432;SDS011;3249;42.690;23.260;2022-11-04T05:27:34;42.30;;;25.57;;
6432;SDS011;3249;42.690;23.260;2022-11-04T05:29:59;41.03;;;23.97;;
6432;SDS011;3249;42.690;23.260;2022-11-04T05:32:24;41.33;;;23.43;;
6432;SDS011;3249;42.690;23.260;2022-11-04T05:34:53;32.90;;;20.97;;
6432;SDS011;3249;42.690;23.260;2022-11-04T05:37:18;37.20;;;23.50;;
6432;SDS011;3249;42.690;23.260;2022-11-04T05:39:44;33.80;;;21.10;;
6432;SDS011;3249;42.690;23.260;2022-11-04T05:42:09;29.57;;;21.33;;
6432;SDS011;3249;42.690;23.260;2022-11-04T05:44:34;36.03;;;21.40;;
6432;SDS011;3249;42.690;23.260;2022-11-04T05:47:00;35.53;;;20.63;;
6432;SDS011;3249;42.690;23.260;2022-11-04T05:49:25;44.27;;;22.03;;
6432;SDS011;3249;42.690;23.260;2022-11-04T05:51:50;33.87;;;23.17;;
6432;SDS011;3249;42.690;23.260;2022-11-04T05:54:16;41.10;;;24.57;;
6432;SDS011;3249;42.690;23.260;2022-11-04T05:56:41;38.57;;;24.57;;
6432;SDS011;3249;42.690;23.260;2022-11-04T05:59:07;42.90;;;23.47;;
6432;SDS011;3249;42.690;23.260;2022-11-04T06:01:33;38.80;;;23.03;;
6432;SDS011;3249;42.690;23.260;2022-11-04T06:04:01;40.47;;;23.47;;
6432;SDS011;3249;42.690;23.260;2022-11-04T06:06:32;37.37;;;22.40;;
6432;SDS011;3249;42.690;23.260;2022-11-04T06:08:58;46.40;;;24.47;;
6432;SDS011;3249;42.690;23.260;2022-11-04T06:11:24;58.77;;;28.73;;
6432;SDS011;3249;42.690;23.260;2022-11-04T06:13:52;28.63;;;21.73;;
6432;SDS011;3249;42.690;23.260;2022-11-04T06:16:18;45.80;;;26.37;;
6432;SDS011;3249;42.690;23.260;2022-11-04T06:18:44;43.10;;;24.03;;
6432;SDS011;3249;42.690;23.260;2022-11-04T06:23:41;33.53;;;23.67;;
6432;SDS011;3249;42.690;23.260;2022-11-04T06:26:07;36.03;;;24.83;;
6432;SDS011;3249;42.690;23.260;2022-11-04T06:28:34;38.17;;;26.93;;
6432;SDS011;3249;42.690;23.260;2022-11-04T06:31:00;40.13;;;26.73;;
6432;SDS011;3249;42.690;23.260;2022-11-04T06:33:28;58.70;;;37.87;;
6432;SDS011;3249;42.690;23.260;2022-11-04T06:36:01;88.30;;;48.43;;
6432;SDS011;3249;42.690;23.260;2022-11-04T06:38:30;63.10;;;37.53;;
6432;SDS011;3249;42.690;23.260;2022-11-04T06:40:56;51.40;;;33.17;;
6432;SDS011;3249;42.690;23.260;2022-11-04T06:43:22;52.67;;;34.03;;
6432;SDS011;3249;42.690;23.260;2022-11-04T06:45:54;56.53;;;33.73;;
6432;SDS011;3249;42.690;23.260;2022-11-04T06:48:20;40.77;;;30.83;;
6432;SDS011;3249;42.690;23.260;2022-11-04T06:50:46;56.17;;;35.00;;
6432;SDS011;3249;42.690;23.260;2022-11-04T06:53:11;50.13;;;30.93;;
6432;SDS011;3249;42.690;23.260;2022-11-04T06:55:36;91.37;;;70.17;;
6432;SDS011;3249;42.690;23.260;2022-11-04T06:58:02;61.90;;;40.67;;
6432;SDS011;3249;42.690;23.260;2022-11-04T07:00:27;54.40;;;36.47;;
6432;SDS011;3249;42.690;23.260;2022-11-04T07:02:53;48.40;;;32.23;;
6432;SDS011;3249;42.690;23.260;2022-11-04T07:05:18;60.10;;;34.67;;
6432;SDS011;3249;42.690;23.260;2022-11-04T07:07:44;42.83;;;32.03;;
6432;SDS011;3249;42.690;23.260;2022-11-04T07:10:09;52.07;;;35.27;;
6432;SDS011;3249;42.690;23.260;2022-11-04T07:12:35;69.53;;;41.47;;
6432;SDS011;3249;42.690;23.260;2022-11-04T07:15:00;75.60;;;44.77;;
6432;SDS011;3249;42.690;23.260;2022-11-04T07:17:26;62.73;;;38.30;;
6432;SDS011;3249;42.690;23.260;2022-11-04T07:19:51;47.70;;;33.17;;
6432;SDS011;3249;42.690;23.260;2022-11-04T07:22:17;53.97;;;32.30;;
6432;SDS011;3249;42.690;23.260;2022-11-04T07:24:42;42.87;;;29.97;;
6432;SDS011;3249;42.690;23.260;2022-11-04T07:27:08;42.27;;;30.83;;
6432;SDS011;3249;42.690;23.260;2022-11-04T07:29:34;52.13;;;31.13;;
6432;SDS011;3249;42.690;23.260;2022-11-04T07:31:59;50.93;;;33.10;;
6432;SDS011;3249;42.690;23.260;2022-11-04T07:34:24;48.40;;;34.23;;
6432;SDS011;3249;42.690;23.260;2022-11-04T07:36:50;53.53;;;33.23;;
6432;SDS011;3249;42.690;23.260;2022-11-04T07:39:15;51.77;;;34.50;;
6432;SDS011;3249;42.690;23.260;2022-11-04T07:41:41;50.17;;;34.27;;
6432;SDS011;3249;42.690;23.260;2022-11-04T07:44:09;53.33;;;33.47;;
6432;SDS011;3249;42.690;23.260;2022-11-04T07:46:35;52.63;;;34.90;;
6432;SDS011;3249;42.690;23.260;2022-11-04T07:49:01;53.40;;;34.07;;
6432;SDS011;3249;42.690;23.260;2022-11-04T07:51:27;44.57;;;31.83;;
6432;SDS011;3249;42.690;23.260;2022-11-04T07:53:53;44.33;;;31.00;;
6432;SDS011;3249;42.690;23.260;2022-11-04T07:56:19;47.90;;;36.27;;
6432;SDS011;3249;42.690;23.260;2022-11-04T07:58:45;44.40;;;31.47;;
6432;SDS011;3249;42.690;23.260;2022-11-04T08:01:11;45.90;;;31.50;;
6432;SDS011;3249;42.690;23.260;2022-11-04T08:03:40;46.73;;;32.40;;
6432;SDS011;3249;42.690;23.260;2022-11-04T08:06:06;45.83;;;30.43;;
6432;SDS011;3249;42.690;23.260;2022-11-04T08:08:33;48.30;;;32.27;;
6432;SDS011;3249;42.690;23.260;2022-11-04T08:11:03;46.40;;;33.37;;
6432;SDS011;3249;42.690;23.260;2022-11-04T08:13:31;42.10;;;29.13;;
6432;SDS011;3249;42.690;23.260;2022-11-04T08:16:02;44.03;;;30.50;;
6432;SDS011;3249;42.690;23.260;2022-11-04T08:18:32;40.87;;;30.87;;
6432;SDS011;3249;42.690;23.260;2022-11-04T08:20:58;53.23;;;33.87;;
6432;SDS011;3249;42.690;23.260;2022-11-04T08:23:24;49.10;;;31.53;;
6432;SDS011;3249;42.690;23.260;2022-11-04T08:25:50;43.93;;;31.10;;
6432;SDS011;3249;42.690;23.260;2022-11-04T08:28:15;47.20;;;30.90;;
6432;SDS011;3249;42.690;23.260;2022-11-04T08:30:53;46.10;;;31.27;;
6432;SDS011;3249;42.690;23.260;2022-11-04T08:33:27;43.23;;;30.97;;
6432;SDS011;3249;42.690;23.260;2022-11-04T08:35:57;37.27;;;29.50;;
6432;SDS011;3249;42.690;23.260;2022-11-04T08:38:28;40.93;;;29.17;;
6432;SDS011;3249;42.690;23.260;2022-11-04T08:40:57;53.27;;;32.37;;
6432;SDS011;3249;42.690;23.260;2022-11-04T08:43:23;44.60;;;28.37;;
6432;SDS011;3249;42.690;23.260;2022-11-04T08:45:49;38.17;;;28.53;;
6432;SDS011;3249;42.690;23.260;2022-11-04T08:48:15;42.03;;;29.13;;
6432;SDS011;3249;42.690;23.260;2022-11-04T08:50:40;39.07;;;28.87;;
6432;SDS011;3249;42.690;23.260;2022-11-04T08:53:06;40.70;;;28.67;;
6432;SDS011;3249;42.690;23.260;2022-11-04T08:55:32;39.73;;;28.93;;
6432;SDS011;3249;42.690;23.260;2022-11-04T08:57:59;39.00;;;27.10;;
6432;SDS011;3249;42.690;23.260;2022-11-04T09:00:25;38.17;;;27.83;;
6432;SDS011;3249;42.690;23.260;2022-11-04T09:02:51;37.77;;;28.03;;
6432;SDS011;3249;42.690;23.260;2022-11-04T09:05:17;38.83;;;27.53;;
6432;SDS011;3249;42.690;23.260;2022-11-04T09:07:43;42.43;;;27.27;;
6432;SDS011;3249;42.690;23.260;2022-11-04T09:10:09;38.23;;;28.73;;
6432;SDS011;3249;42.690;23.260;2022-11-04T09:12:35;41.20;;;27.67;;
6432;SDS011;3249;42.690;23.260;2022-11-04T09:15:01;45.33;;;26.87;;
6432;SDS011;3249;42.690;23.260;2022-11-04T09:17:28;40.53;;;26.57;;
6432;SDS011;3249;42.690;23.260;2022-11-04T09:19:54;37.13;;;25.60;;
6432;SDS011;3249;42.690;23.260;2022-11-04T09:22:19;35.57;;;25.93;;
6432;SDS011;3249;42.690;23.260;2022-11-04T09:24:44;37.83;;;26.30;;
6432;SDS011;3249;42.690;23.260;2022-11-04T09:27:10;38.47;;;25.33;;
6432;SDS011;3249;42.690;23.260;2022-11-04T09:29:35;36.43;;;25.10;;
6432;SDS011;3249;42.690;23.260;2022-11-04T09:32:03;39.03;;;26.53;;
6432;SDS011;3249;42.690;23.260;2022-11-04T09:34:29;37.17;;;27.67;;
6432;SDS011;3249;42.690;23.260;2022-11-04T09:36:55;35.80;;;26.77;;
6432;SDS011;3249;42.690;23.260;2022-11-04T09:39:23;37.27;;;25.43;;
6432;SDS011;3249;42.690;23.260;2022-11-04T09:47:18;37.77;;;26.20;;
6432;SDS011;3249;42.690;23.260;2022-11-04T09:49:46;34.60;;;23.77;;
6432;SDS011;3249;42.690;23.260;2022-11-04T09:52:22;35.20;;;24.70;;
6432;SDS011;3249;42.690;23.260;2022-11-04T09:58:08;36.67;;;26.03;;
6432;SDS011;3249;42.690;23.260;2022-11-04T10:00:37;35.50;;;24.10;;
6432;SDS011;3249;42.690;23.260;2022-11-04T10:08:40;34.37;;;24.67;;
6432;SDS011;3249;42.690;23.260;2022-11-04T10:11:15;40.07;;;25.67;;
6432;SDS011;3249;42.690;23.260;2022-11-04T10:14:13;32.17;;;23.93;;
6432;SDS011;3249;42.690;23.260;2022-11-04T10:17:28;33.27;;;23.33;;
6432;SDS011;3249;42.690;23.260;2022-11-04T10:27:44;36.90;;;24.33;;
6432;SDS011;3249;42.690;23.260;2022-11-04T10:30:15;36.10;;;22.50;;
6432;SDS011;3249;42.690;23.260;2022-11-04T10:35:24;39.57;;;24.10;;
6432;SDS011;3249;42.690;23.260;2022-11-04T10:38:15;31.67;;;23.37;;
6432;SDS011;3249;42.690;23.260;2022-11-04T10:40:45;39.33;;;24.10;;
6432;SDS011;3249;42.690;23.260;2022-11-04T10:43:14;31.23;;;22.40;;
6432;SDS011;3249;42.690;23.260;2022-11-04T10:45:46;35.37;;;21.90;;
6432;SDS011;3249;42.690;23.260;2022-11-04T10:48:19;35.60;;;22.07;;
6432;SDS011;3249;42.690;23.260;2022-11-04T10:50:54;30.57;;;22.27;;
6432;SDS011;3249;42.690;23.260;2022-11-04T10:53:28;34.60;;;22.33;;
6432;SDS011;3249;42.690;23.260;2022-11-04T10:56:06;30.67;;;21.17;;
6432;SDS011;3249;42.690;23.260;2022-11-04T10:58:46;25.97;;;19.90;;
6432;SDS011;3249;42.690;23.260;2022-11-04T11:01:46;28.53;;;19.83;;
6432;SDS011;3249;42.690;23.260;2022-11-04T11:04:11;32.90;;;20.23;;
6432;SDS011;3249;42.690;23.260;2022-11-04T11:06:49;29.10;;;18.90;;
6432;SDS011;3249;42.690;23.260;2022-11-04T11:09:21;23.80;;;18.47;;
6432;SDS011;3249;42.690;23.260;2022-11-04T11:11:53;23.67;;;16.63;;
6432;SDS011;3249;42.690;23.260;2022-11-04T11:16:52;40.97;;;20.43;;
6432;SDS011;3249;42.690;23.260;2022-11-04T11:19:22;25.80;;;17.03;;
6432;SDS011;3249;42.690;23.260;2022-11-04T11:21:53;26.37;;;16.87;;
6432;SDS011;3249;42.690;23.260;2022-11-04T11:24:21;31.53;;;19.00;;
6432;SDS011;3249;42.690;23.260;2022-11-04T11:26:49;24.70;;;15.93;;
6432;SDS011;3249;42.690;23.260;2022-11-04T11:29:18;22.67;;;14.73;;
6432;SDS011;3249;42.690;23.260;2022-11-04T11:31:56;28.23;;;17.13;;
6432;SDS011;3249;42.690;23.260;2022-11-04T11:34:25;29.17;;;16.97;;
6432;SDS011;3249;42.690;23.260;2022-11-04T11:36:55;26.87;;;16.43;;
6432;SDS011;3249;42.690;23.260;2022-11-04T11:39:22;23.03;;;16.17;;
6432;SDS011;3249;42.690;23.260;2022-11-04T11:41:57;22.73;;;15.57;;
6432;SDS011;3249;42.690;23.260;2022-11-04T11:44:40;22.93;;;14.93;;
6432;SDS011;3249;42.690;23.260;2022-11-04T11:47:19;27.17;;;15.17;;
6432;SDS011;3249;42.690;23.260;2022-11-04T11:52:37;18.70;;;14.13;;
6432;SDS011;3249;42.690;23.260;2022-11-04T12:00:50;25.73;;;16.17;;
6432;SDS011;3249;42.690;23.260;2022-11-04T12:03:34;30.00;;;15.80;;
6432;SDS011;3249;42.690;23.260;2022-11-04T12:14:04;21.07;;;15.77;;
6432;SDS011;3249;42.690;23.260;2022-11-04T12:16:57;25.00;;;14.27;;
6432;SDS011;3249;42.690;23.260;2022-11-04T12:30:38;21.97;;;14.43;;
6432;SDS011;3249;42.690;23.260;2022-11-04T12:33:55;20.87;;;15.17;;
6432;SDS011;3249;42.690;23.260;2022-11-04T12:36:57;22.60;;;14.93;;
6432;SDS011;3249;42.690;23.260;2022-11-04T12:50:02;18.63;;;12.77;;
6432;SDS011;3249;42.690;23.260;2022-11-04T12:58:44;18.23;;;12.50;;
6432;SDS011;3249;42.690;23.260;2022-11-04T13:04:16;22.50;;;12.00;;
6432;SDS011;3249;42.690;23.260;2022-11-04T13:06:45;25.13;;;12.90;;
6432;SDS011;3249;42.690;23.260;2022-11-04T13:12:22;21.07;;;12.80;;
6432;SDS011;3249;42.690;23.260;2022-11-04T13:14:59;17.80;;;13.60;;
6432;SDS011;3249;42.690;23.260;2022-11-04T13:17:32;21.53;;;14.03;;
6432;SDS011;3249;42.690;23.260;2022-11-04T13:22:37;22.90;;;14.73;;
6432;SDS011;3249;42.690;23.260;2022-11-04T13:25:12;19.63;;;13.27;;
6432;SDS011;3249;42.690;23.260;2022-11-04T13:27:45;19.30;;;14.20;;
6432;SDS011;3249;42.690;23.260;2022-11-04T13:30:19;27.90;;;14.13;;
6432;SDS011;3249;42.690;23.260;2022-11-04T13:33:07;22.20;;;14.27;;
6432;SDS011;3249;42.690;23.260;2022-11-04T13:38:46;25.37;;;16.63;;
6432;SDS011;3249;42.690;23.260;2022-11-04T13:41:38;29.60;;;15.83;;
6432;SDS011;3249;42.690;23.260;2022-11-04T13:44:17;17.93;;;13.90;;
6432;SDS011;3249;42.690;23.260;2022-11-04T13:46:56;24.47;;;15.43;;
6432;SDS011;3249;42.690;23.260;2022-11-04T13:49:31;19.27;;;14.03;;
6432;SDS011;3249;42.690;23.260;2022-11-04T13:52:02;25.67;;;13.80;;
6432;SDS011;3249;42.690;23.260;2022-11-04T13:54:38;19.07;;;13.60;;
6432;SDS011;3249;42.690;23.260;2022-11-04T13:59:34;29.07;;;15.20;;
6432;SDS011;3249;42.690;23.260;2022-11-04T14:04:38;28.60;;;14.53;;
6432;SDS011;3249;42.690;23.260;2022-11-04T14:07:08;22.20;;;13.80;;
6432;SDS011;3249;42.690;23.260;2022-11-04T14:14:35;27.47;;;19.63;;
6432;SDS011;3249;42.690;23.260;2022-11-04T14:22:36;34.07;;;20.80;;
6432;SDS011;3249;42.690;23.260;2022-11-04T14:25:19;50.50;;;23.40;;
6432;SDS011;3249;42.690;23.260;2022-11-04T14:27:52;50.77;;;22.87;;
6432;SDS011;3249;42.690;23.260;2022-11-04T14:30:30;67.00;;;37.57;;
6432;SDS011;3249;42.690;23.260;2022-11-04T14:32:58;48.23;;;23.83;;
6432;SDS011;3249;42.690;23.260;2022-11-04T14:35:27;32.13;;;20.10;;
6432;SDS011;3249;42.690;23.260;2022-11-04T14:37:54;36.13;;;19.60;;
6432;SDS011;3249;42.690;23.260;2022-11-04T14:40:27;30.37;;;19.40;;
6432;SDS011;3249;42.690;23.260;2022-11-04T14:43:18;24.03;;;15.63;;
6432;SDS011;3249;42.690;23.260;2022-11-04T14:45:58;23.77;;;15.00;;
6432;SDS011;3249;42.690;23.260;2022-11-04T14:48:24;22.87;;;16.13;;
6432;SDS011;3249;42.690;23.260;2022-11-04T14:50:52;28.93;;;15.30;;
6432;SDS011;3249;42.690;23.260;2022-11-04T14:53:32;28.67;;;14.70;;
6432;SDS011;3249;42.690;23.260;2022-11-04T14:56:01;25.80;;;16.33;;
6432;SDS011;3249;42.690;23.260;2022-11-04T14:58:27;29.87;;;19.60;;
6432;SDS011;3249;42.690;23.260;2022-11-04T15:00:54;30.20;;;19.97;;
6432;SDS011;3249;42.690;23.260;2022-11-04T15:03:27;36.17;;;23.83;;
6432;SDS011;3249;42.690;23.260;2022-11-04T15:06:04;43.70;;;29.53;;
6432;SDS011;3249;42.690;23.260;2022-11-04T15:13:32;51.27;;;32.00;;
6432;SDS011;3249;42.690;23.260;2022-11-04T15:15:58;59.47;;;39.27;;
6432;SDS011;3249;42.690;23.260;2022-11-04T15:18:28;32.13;;;20.20;;
6432;SDS011;3249;42.690;23.260;2022-11-04T15:20:58;64.83;;;40.23;;
6432;SDS011;3249;42.690;23.260;2022-11-04T15:23:28;54.10;;;35.90;;
6432;SDS011;3249;42.690;23.260;2022-11-04T15:25:59;67.40;;;47.07;;
6432;SDS011;3249;42.690;23.260;2022-11-04T15:28:29;63.13;;;45.70;;
6432;SDS011;3249;42.690;23.260;2022-11-04T15:31:06;64.33;;;44.43;;
6432;SDS011;3249;42.690;23.260;2022-11-04T15:33:44;75.13;;;48.57;;
6432;SDS011;3249;42.690;23.260;2022-11-04T15:36:16;55.70;;;33.97;;
6432;SDS011;3249;42.690;23.260;2022-11-04T15:38:46;63.07;;;39.03;;
6432;SDS011;3249;42.690;23.260;2022-11-04T15:41:17;52.73;;;30.50;;
6432;SDS011;3249;42.690;23.260;2022-11-04T15:44:02;45.13;;;27.23;;
6432;SDS011;3249;42.690;23.260;2022-11-04T15:46:28;38.00;;;26.20;;
6432;SDS011;3249;42.690;23.260;2022-11-04T15:49:01;39.80;;;25.67;;
6432;SDS011;3249;42.690;23.260;2022-11-04T15:51:37;31.20;;;21.17;;
6432;SDS011;3249;42.690;23.260;2022-11-04T15:56:45;71.77;;;44.27;;
6432;SDS011;3249;42.690;23.260;2022-11-04T15:59:16;96.10;;;59.47;;
6432;SDS011;3249;42.690;23.260;2022-11-04T16:01:49;99.23;;;59.60;;
6432;SDS011;3249;42.690;23.260;2022-11-04T16:04:16;79.10;;;51.03;;
6432;SDS011;3249;42.690;23.260;2022-11-04T16:06:45;95.07;;;55.53;;
6432;SDS011;3249;42.690;23.260;2022-11-04T16:09:25;95.63;;;59.27;;
6432;SDS011;3249;42.690;23.260;2022-11-04T16:12:10;77.07;;;49.17;;
6432;SDS011;3249;42.690;23.260;2022-11-04T16:14:45;64.97;;;40.83;;
6432;SDS011;3249;42.690;23.260;2022-11-04T16:17:16;80.50;;;55.83;;
6432;SDS011;3249;42.690;23.260;2022-11-04T16:19:44;71.97;;;45.27;;
6432;SDS011;3249;42.690;23.260;2022-11-04T16:22:11;70.87;;;43.10;;
6432;SDS011;3249;42.690;23.260;2022-11-04T16:24:45;82.33;;;52.20;;
6432;SDS011;3249;42.690;23.260;2022-11-04T16:27:15;80.00;;;48.13;;
6432;SDS011;3249;42.690;23.260;2022-11-04T16:29:43;45.17;;;29.13;;
6432;SDS011;3249;42.690;23.260;2022-11-04T16:32:19;50.83;;;32.73;;
6432;SDS011;3249;42.690;23.260;2022-11-04T16:34:50;59.83;;;35.40;;
6432;SDS011;3249;42.690;23.260;2022-11-04T16:37:17;52.83;;;35.07;;
6432;SDS011;3249;42.690;23.260;2022-11-04T16:39:43;47.53;;;29.50;;
6432;SDS011;3249;42.690;23.260;2022-11-04T16:42:12;69.83;;;38.17;;
6432;SDS011;3249;42.690;23.260;2022-11-04T16:44:39;57.97;;;34.17;;
6432;SDS011;3249;42.690;23.260;2022-11-04T16:47:14;50.00;;;29.70;;
6432;SDS011;3249;42.690;23.260;2022-11-04T16:49:39;55.80;;;32.87;;
6432;SDS011;3249;42.690;23.260;2022-11-04T16:52:08;46.53;;;30.03;;
6432;SDS011;3249;42.690;23.260;2022-11-04T16:54:37;41.73;;;27.53;;
6432;SDS011;3249;42.690;23.260;2022-11-04T16:57:02;42.70;;;25.70;;
6432;SDS011;3249;42.690;23.260;2022-11-04T16:59:30;37.53;;;25.33;;
6432;SDS011;3249;42.690;23.260;2022-11-04T17:01:56;38.90;;;24.43;;
6432;SDS011;3249;42.690;23.260;2022-11-04T17:04:21;50.17;;;23.83;;
6432;SDS011;3249;42.690;23.260;2022-11-04T17:06:47;36.40;;;24.13;;
6432;SDS011;3249;42.690;23.260;2022-11-04T17:09:17;40.93;;;25.17;;
6432;SDS011;3249;42.690;23.260;2022-11-04T17:11:45;41.27;;;26.10;;
6432;SDS011;3249;42.690;23.260;2022-11-04T17:14:11;43.53;;;26.77;;
6432;SDS011;3249;42.690;23.260;2022-11-04T17:16:36;34.90;;;24.83;;
6432;SDS011;3249;42.690;23.260;2022-11-04T17:19:01;41.83;;;26.53;;
6432;SDS011;3249;42.690;23.260;2022-11-04T17:21:27;45.40;;;31.77;;
6432;SDS011;3249;42.690;23.260;2022-11-04T17:23:52;44.20;;;30.20;;
6432;SDS011;3249;42.690;23.260;2022-11-04T17:26:20;49.57;;;30.03;;
6432;SDS011;3249;42.690;23.260;2022-11-04T17:28:45;69.63;;;44.17;;
6432;SDS011;3249;42.690;23.260;2022-11-04T17:31:14;71.03;;;39.13;;
6432;SDS011;3249;42.690;23.260;2022-11-04T17:33:46;62.43;;;36.73;;
6432;SDS011;3249;42.690;23.260;2022-11-04T17:36:16;62.40;;;36.40;;